createdAt,value
2023-05-06T00:01:22.221Z,71.22
2023-05-06T00:03:49.360Z,71.26
2023-05-06T00:06:16.792Z,70.87
2023-05-06T00:08:43.755Z,70.74
2023-05-06T00:11:10.652Z,70.75
2023-05-06T00:13:38.438Z,70.98
2023-05-06T00:16:05.910Z,70.92
2023-05-06T00:18:33.201Z,70.51
2023-05-06T00:21:01.045Z,70.47
2023-05-06T00:23:28.165Z,70.74
2023-05-06T00:25:55.254Z,71.65
2023-05-06T00:28:22.274Z,71.86
2023-05-06T00:30:49.236Z,72.04
2023-05-06T00:33:16.123Z,72.16
2023-05-06T00:35:43.094Z,71.91
2023-05-06T00:38:12.170Z,71.82
2023-05-06T00:40:39.379Z,71.43
2023-05-06T00:43:06.375Z,71.67
2023-05-06T00:45:33.377Z,71.50
2023-05-06T00:48:00.401Z,72.24
2023-05-06T00:50:28.730Z,72.77
2023-05-06T00:52:57.159Z,72.95
2023-05-06T00:55:24.705Z,72.83
2023-05-06T00:57:52.679Z,73.53
2023-05-06T01:00:19.850Z,73.77
2023-05-06T01:02:48.245Z,73.81
2023-05-06T01:05:18.749Z,73.83
2023-05-06T01:08:03.854Z,73.81
2023-05-06T01:11:06.684Z,73.69
2023-05-06T01:13:39.697Z,73.39
2023-05-06T01:16:07.689Z,72.97
2023-05-06T01:18:35.041Z,72.99
2023-05-06T01:21:02.206Z,72.78
2023-05-06T01:23:29.173Z,73.11
2023-05-06T01:25:56.426Z,74.00
2023-05-06T01:28:23.245Z,74.28
2023-05-06T01:30:53.704Z,74.71
2023-05-06T01:33:51.584Z,75.47
2023-05-06T01:36:46.807Z,74.84
2023-05-06T01:39:25.896Z,74.56
2023-05-06T01:41:54.324Z,74.25
2023-05-06T01:44:22.195Z,74.93
2023-05-06T01:46:49.926Z,74.75
2023-05-06T01:49:17.192Z,74.23
2023-05-06T01:51:51.147Z,74.43
2023-05-06T01:54:18.273Z,74.06
2023-05-06T01:56:45.218Z,73.93
2023-05-06T01:59:12.104Z,73.37
2023-05-06T02:01:39.039Z,73.32
2023-05-06T02:04:05.954Z,73.50
2023-05-06T02:06:32.870Z,73.11
2023-05-06T02:08:59.761Z,73.37
2023-05-06T02:11:26.560Z,73.57
2023-05-06T02:13:53.498Z,73.44
2023-05-06T02:16:22.048Z,73.68
2023-05-06T02:18:49.042Z,74.29
2023-05-06T02:21:16.124Z,74.93
2023-05-06T02:23:43.071Z,76.03
2023-05-06T02:26:10.928Z,75.56
2023-05-06T02:28:37.819Z,75.38
2023-05-06T02:31:04.738Z,76.40
2023-05-06T02:33:31.661Z,77.03
2023-05-06T02:35:58.514Z,77.26
2023-05-06T02:38:26.185Z,77.74
2023-05-06T02:40:52.987Z,77.25
2023-05-06T02:43:19.867Z,77.81
2023-05-06T02:45:46.719Z,78.55
2023-05-06T02:48:13.724Z,78.61
2023-05-06T02:50:41.333Z,77.67
2023-05-06T02:53:09.529Z,77.72
2023-05-06T02:55:36.555Z,78.23
2023-05-06T02:58:03.381Z,78.29
2023-05-06T03:00:30.258Z,77.38
2023-05-06T03:02:57.235Z,77.64
2023-05-06T03:05:24.394Z,77.04
2023-05-06T03:07:51.362Z,76.32
2023-05-06T03:10:18.260Z,76.38
2023-05-06T03:12:45.266Z,75.94
2023-05-06T03:15:12.241Z,76.05
2023-05-06T03:17:39.769Z,76.12
2023-05-06T03:20:08.846Z,75.84
2023-05-06T03:22:35.958Z,74.94
2023-05-06T03:25:02.869Z,74.59
2023-05-06T03:27:30.135Z,74.78
2023-05-06T03:29:56.919Z,74.96
2023-05-06T03:32:23.764Z,75.29
2023-05-06T03:34:51.316Z,75.43
2023-05-06T03:37:18.887Z,75.73
2023-05-06T03:39:45.746Z,75.79
2023-05-06T03:42:12.584Z,75.95
2023-05-06T03:44:39.429Z,76.29
2023-05-06T03:47:06.270Z,76.23
2023-05-06T03:49:33.128Z,76.39
2023-05-06T03:51:59.962Z,76.31
2023-05-06T03:54:26.899Z,76.72
2023-05-06T03:56:53.756Z,76.98
2023-05-06T03:59:20.585Z,76.78
2023-05-06T04:01:47.549Z,76.42
2023-05-06T04:04:14.493Z,76.93
2023-05-06T04:06:41.445Z,79.43
2023-05-06T04:09:08.349Z,87.19
2023-05-06T04:11:36.040Z,92.15
2023-05-06T04:14:02.979Z,94.52
2023-05-06T04:16:30.033Z,95.36
2023-05-06T04:18:57.703Z,94.77
2023-05-06T04:21:24.592Z,94.25
2023-05-06T04:23:51.711Z,93.93
2023-05-06T04:26:18.632Z,91.53
2023-05-06T04:28:46.113Z,88.99
2023-05-06T04:31:14.951Z,88.91
2023-05-06T04:33:42.303Z,88.32
2023-05-06T04:36:09.212Z,87.11
2023-05-06T04:38:37.730Z,85.67
2023-05-06T04:41:05.532Z,84.92
2023-05-06T04:43:32.949Z,83.86
2023-05-06T04:46:00.092Z,84.75
2023-05-06T04:48:27.194Z,83.48
2023-05-06T04:50:54.188Z,84.03
2023-05-06T04:53:21.161Z,83.43
2023-05-06T04:55:48.045Z,82.72
2023-05-06T04:58:15.023Z,79.81
2023-05-06T05:00:41.991Z,77.26
2023-05-06T05:03:08.912Z,76.57
2023-05-06T05:05:35.908Z,75.61
2023-05-06T05:08:02.722Z,75.04
2023-05-06T05:10:29.675Z,71.56
2023-05-06T05:12:56.699Z,71.92
2023-05-06T05:15:23.746Z,70.92
2023-05-06T05:17:51.142Z,70.47
2023-05-06T05:20:18.217Z,69.57
2023-05-06T05:22:45.003Z,68.94
2023-05-06T05:25:12.344Z,68.06
2023-05-06T05:27:39.762Z,66.90
2023-05-06T05:30:08.112Z,64.16
2023-05-06T05:32:35.085Z,61.44
2023-05-06T05:35:02.164Z,57.45
2023-05-06T05:37:29.165Z,56.29
2023-05-06T05:39:56.101Z,56.69
2023-05-06T05:42:22.967Z,56.98
2023-05-06T05:44:49.877Z,56.42
2023-05-06T05:47:16.750Z,54.37
2023-05-06T05:49:43.600Z,53.63
2023-05-06T05:52:10.422Z,54.05
2023-05-06T05:54:37.390Z,54.48
2023-05-06T05:57:04.586Z,56.20
2023-05-06T05:59:32.966Z,57.59
2023-05-06T06:01:59.882Z,58.48
2023-05-06T06:04:27.208Z,57.74
2023-05-06T06:06:54.179Z,58.53
2023-05-06T06:09:21.212Z,57.92
2023-05-06T06:11:48.172Z,58.24
2023-05-06T06:14:15.043Z,59.03
2023-05-06T06:16:42.178Z,59.58
2023-05-06T06:19:09.164Z,59.17
2023-05-06T06:21:36.169Z,54.11
2023-05-06T06:24:03.207Z,47.40
2023-05-06T06:26:30.023Z,45.21
2023-05-06T06:28:56.810Z,40.21
2023-05-06T06:31:24.031Z,36.53
2023-05-06T06:33:50.875Z,34.20
2023-05-06T06:36:17.666Z,31.19
2023-05-06T06:38:44.653Z,28.13
2023-05-06T06:41:11.550Z,25.65
2023-05-06T06:43:38.359Z,23.32
2023-05-06T06:46:05.328Z,22.75
2023-05-06T06:48:32.199Z,21.76
2023-05-06T06:50:59.240Z,20.74
2023-05-06T06:53:26.087Z,21.23
2023-05-06T06:55:52.977Z,21.48
2023-05-06T06:58:19.933Z,20.27
2023-05-06T07:00:46.847Z,20.26
2023-05-06T07:03:15.981Z,20.68
2023-05-06T07:05:42.936Z,21.67
2023-05-06T07:08:09.737Z,21.22
2023-05-06T07:10:36.849Z,21.98
2023-05-06T07:13:03.785Z,23.26
2023-05-06T07:15:30.739Z,25.10
2023-05-06T07:17:57.617Z,23.54
2023-05-06T07:20:24.526Z,22.46
2023-05-06T07:22:51.270Z,21.53
2023-05-06T07:25:18.212Z,20.78
2023-05-06T07:27:44.944Z,19.41
2023-05-06T07:30:12.170Z,19.86
2023-05-06T07:32:43.650Z,18.18
2023-05-06T07:35:10.733Z,16.81
2023-05-06T07:37:38.049Z,15.63
2023-05-06T07:40:05.707Z,16.31
2023-05-06T07:42:32.739Z,17.59
2023-05-06T07:44:59.738Z,17.87
2023-05-06T07:47:31.863Z,18.46
2023-05-06T07:49:59.053Z,18.09
2023-05-06T07:52:25.844Z,16.93
2023-05-06T07:54:53.452Z,16.43
2023-05-06T07:57:20.343Z,15.67
2023-05-06T07:59:48.060Z,16.34
2023-05-06T08:02:15.409Z,17.92
2023-05-06T08:04:43.195Z,16.60
2023-05-06T08:07:11.020Z,14.88
2023-05-06T08:09:38.074Z,14.91
2023-05-06T08:12:04.863Z,14.65
2023-05-06T08:14:31.894Z,13.69
2023-05-06T08:16:58.810Z,13.32
2023-05-06T08:19:26.697Z,13.64
2023-05-06T08:21:53.599Z,13.50
2023-05-06T08:24:21.800Z,13.33
2023-05-06T08:26:48.722Z,13.14
2023-05-06T08:29:16.113Z,12.61
2023-05-06T08:31:43.638Z,13.55
2023-05-06T08:34:10.600Z,13.44
2023-05-06T08:36:37.511Z,13.94
2023-05-06T08:39:04.761Z,13.69
2023-05-06T08:41:31.826Z,13.41
2023-05-06T08:43:58.805Z,13.93
2023-05-06T08:46:27.862Z,13.51
2023-05-06T08:48:54.866Z,14.08
2023-05-06T08:51:23.669Z,14.39
2023-05-06T08:53:52.228Z,13.87
2023-05-06T08:56:19.262Z,13.82
2023-05-06T08:58:46.946Z,13.36
2023-05-06T09:01:14.981Z,14.00
2023-05-06T09:03:42.014Z,13.48
2023-05-06T09:06:09.066Z,14.09
2023-05-06T09:08:36.480Z,13.70
2023-05-06T09:11:03.405Z,13.90
2023-05-06T09:13:30.335Z,13.81
2023-05-06T09:15:57.189Z,13.79
2023-05-06T09:18:24.070Z,13.15
2023-05-06T09:20:51.143Z,13.15
2023-05-06T09:23:18.173Z,14.44
2023-05-06T09:25:46.312Z,14.46
2023-05-06T09:28:13.760Z,14.84
2023-05-06T09:30:41.938Z,15.92
2023-05-06T09:33:09.180Z,16.92
2023-05-06T09:35:40.498Z,17.41
2023-05-06T09:38:08.072Z,17.99
2023-05-06T09:40:36.203Z,18.20
2023-05-06T09:43:03.636Z,18.33
2023-05-06T09:45:30.986Z,17.79
2023-05-06T09:47:58.784Z,18.11
2023-05-06T09:50:26.729Z,18.79
2023-05-06T09:52:53.750Z,19.19
2023-05-06T09:55:21.446Z,19.49
2023-05-06T09:57:49.478Z,19.41
2023-05-06T10:00:17.328Z,21.31
2023-05-06T10:02:45.986Z,22.32
2023-05-06T10:05:14.049Z,23.27
2023-05-06T10:07:44.474Z,23.56
2023-05-06T10:10:14.641Z,23.38
2023-05-06T10:12:41.671Z,23.96
2023-05-06T10:15:09.913Z,24.53
2023-05-06T10:17:37.013Z,24.63
2023-05-06T10:20:05.048Z,24.90
2023-05-06T10:22:31.790Z,25.12
2023-05-06T10:25:07.531Z,26.11
2023-05-06T10:27:36.107Z,25.92
2023-05-06T10:30:02.944Z,26.29
2023-05-06T10:32:32.413Z,27.59
2023-05-06T10:35:06.421Z,28.67
2023-05-06T10:37:33.273Z,29.21
2023-05-06T10:40:00.206Z,29.12
2023-05-06T10:42:28.644Z,30.06
2023-05-06T10:45:04.208Z,30.73
2023-05-06T10:47:53.024Z,31.25
2023-05-06T10:50:23.479Z,31.31
2023-05-06T10:52:55.627Z,31.44
2023-05-06T10:55:36.103Z,31.59
2023-05-06T10:58:11.727Z,31.42
2023-05-06T11:00:38.712Z,30.88
2023-05-06T11:03:07.719Z,30.90
2023-05-06T11:05:52.863Z,31.05
2023-05-06T11:08:25.344Z,31.26
2023-05-06T11:10:53.433Z,31.27
2023-05-06T11:13:29.896Z,31.86
2023-05-06T11:15:57.915Z,31.72
2023-05-06T11:18:24.794Z,31.70
2023-05-06T11:21:09.978Z,32.02
2023-05-06T11:23:43.154Z,31.63
2023-05-06T11:26:10.554Z,31.79
2023-05-06T11:28:38.768Z,32.42
2023-05-06T11:31:05.561Z,31.50
2023-05-06T11:33:34.010Z,31.34
2023-05-06T11:36:01.191Z,31.34
2023-05-06T11:38:45.745Z,31.86
2023-05-06T11:41:13.065Z,32.04
2023-05-06T11:43:40.156Z,31.60
2023-05-06T11:46:07.124Z,30.80
2023-05-06T11:48:34.015Z,30.46
2023-05-06T11:51:01.325Z,30.05
2023-05-06T11:53:28.215Z,29.86
2023-05-06T11:55:55.216Z,29.50
2023-05-06T11:58:28.960Z,29.73
2023-05-06T12:00:57.339Z,30.41
2023-05-06T12:03:26.052Z,28.62
2023-05-06T12:05:53.296Z,29.84
2023-05-06T12:08:31.221Z,30.31
2023-05-06T12:11:10.551Z,29.89
2023-05-06T12:13:37.934Z,29.32
2023-05-06T12:16:05.438Z,29.98
2023-05-06T12:18:32.539Z,30.04
2023-05-06T12:21:02.886Z,28.92
2023-05-06T12:23:30.016Z,28.93
2023-05-06T12:26:02.860Z,28.44
2023-05-06T12:28:30.692Z,29.97
2023-05-06T12:30:57.792Z,28.46
2023-05-06T12:33:24.753Z,28.91
2023-05-06T12:35:52.760Z,28.74
2023-05-06T12:38:19.580Z,27.94
2023-05-06T12:40:53.701Z,27.64
2023-05-06T12:43:28.707Z,27.70
2023-05-06T12:46:09.370Z,28.54
2023-05-06T12:48:36.426Z,27.54
2023-05-06T12:51:23.580Z,28.16
2023-05-06T12:53:50.531Z,26.60
2023-05-06T12:56:17.396Z,27.08
2023-05-06T12:58:44.336Z,26.63
2023-05-06T13:01:11.396Z,26.44
2023-05-06T13:03:41.158Z,26.26
2023-05-06T13:06:08.268Z,25.67
2023-05-06T13:08:35.177Z,26.69
2023-05-06T13:11:02.787Z,26.31
2023-05-06T13:13:29.708Z,26.96
2023-05-06T13:15:57.395Z,27.12
2023-05-06T13:18:24.420Z,27.15
2023-05-06T13:20:52.077Z,28.47
2023-05-06T13:23:19.735Z,28.00
2023-05-06T13:26:02.705Z,29.94
2023-05-06T13:28:30.047Z,28.16
2023-05-06T13:30:56.863Z,28.15
2023-05-06T13:33:23.687Z,29.31
2023-05-06T13:35:50.620Z,29.59
2023-05-06T13:38:17.418Z,29.69
2023-05-06T13:40:48.395Z,27.69
2023-05-06T13:43:16.117Z,27.84
2023-05-06T13:45:45.161Z,27.79
2023-05-06T13:48:13.122Z,27.34
2023-05-06T13:50:44.347Z,27.34
2023-05-06T13:53:11.941Z,27.56
2023-05-06T13:55:38.780Z,27.35
2023-05-06T13:58:06.311Z,27.10
2023-05-06T14:00:33.562Z,26.93
2023-05-06T14:03:01.123Z,26.21
2023-05-06T14:05:28.256Z,26.57
2023-05-06T14:07:55.051Z,26.65
2023-05-06T14:10:22.074Z,27.35
2023-05-06T14:12:49.134Z,26.84
2023-05-06T14:15:16.022Z,26.94
2023-05-06T14:17:43.184Z,27.70
2023-05-06T14:20:10.795Z,27.79
2023-05-06T14:22:40.275Z,27.27
2023-05-06T14:25:08.230Z,26.64
2023-05-06T14:27:35.438Z,26.59
2023-05-06T14:30:08.607Z,27.35
2023-05-06T14:32:36.578Z,26.62
2023-05-06T14:35:04.264Z,26.09
2023-05-06T14:37:31.067Z,26.19
2023-05-06T14:39:58.039Z,27.18
2023-05-06T14:42:24.915Z,27.97
2023-05-06T14:44:51.695Z,28.94
2023-05-06T14:47:19.202Z,29.51
2023-05-06T14:49:46.128Z,29.78
2023-05-06T14:52:12.963Z,30.78
2023-05-06T14:54:42.773Z,31.32
2023-05-06T14:57:10.197Z,31.38
2023-05-06T14:59:37.403Z,32.07
2023-05-06T15:02:07.672Z,32.14
2023-05-06T15:04:34.947Z,32.40
2023-05-06T15:07:01.903Z,32.98
2023-05-06T15:09:28.799Z,33.01
2023-05-06T15:11:55.630Z,32.89
2023-05-06T15:14:22.459Z,33.64
2023-05-06T15:16:49.506Z,34.85
2023-05-06T15:19:16.716Z,34.92
2023-05-06T15:21:44.352Z,35.81
2023-05-06T15:24:11.317Z,35.21
2023-05-06T15:26:38.109Z,35.88
2023-05-06T15:29:06.822Z,35.72
2023-05-06T15:31:39.498Z,35.67
2023-05-06T15:34:07.724Z,36.05
2023-05-06T15:36:34.596Z,35.11
2023-05-06T15:39:01.756Z,32.79
2023-05-06T15:41:31.437Z,32.58
2023-05-06T15:43:58.661Z,31.56
2023-05-06T15:46:26.959Z,31.57
2023-05-06T15:49:09.016Z,30.84
2023-05-06T15:51:40.581Z,30.44
2023-05-06T15:54:07.443Z,31.42
2023-05-06T15:56:40.596Z,30.21
2023-05-06T15:59:08.502Z,29.82
2023-05-06T16:01:54.107Z,31.31
2023-05-06T16:04:23.200Z,30.03
2023-05-06T16:06:50.262Z,30.23
2023-05-06T16:09:17.146Z,30.79
2023-05-06T16:11:43.913Z,33.77
2023-05-06T16:14:10.794Z,33.70
2023-05-06T16:16:38.103Z,33.45
2023-05-06T16:19:05.141Z,34.79
2023-05-06T16:21:32.100Z,36.59
2023-05-06T16:23:59.057Z,34.32
2023-05-06T16:26:26.073Z,33.89
2023-05-06T16:28:53.937Z,34.73
2023-05-06T16:31:20.920Z,35.61
2023-05-06T16:33:48.075Z,35.00
2023-05-06T16:36:15.240Z,35.04
2023-05-06T16:38:42.542Z,34.87
2023-05-06T16:41:09.345Z,34.15
2023-05-06T16:43:36.399Z,34.18
2023-05-06T16:46:03.268Z,34.02
2023-05-06T16:48:30.338Z,33.80
2023-05-06T16:50:58.327Z,33.83
2023-05-06T16:53:28.179Z,32.93
2023-05-06T16:55:55.614Z,33.01
2023-05-06T16:58:22.614Z,32.89
2023-05-06T17:00:52.850Z,31.93
2023-05-06T17:03:20.068Z,36.58
2023-05-06T17:05:47.168Z,37.69
2023-05-06T17:08:16.226Z,38.68
2023-05-06T17:10:43.876Z,39.68
2023-05-06T17:13:11.011Z,41.03
2023-05-06T17:15:37.880Z,42.39
2023-05-06T17:18:05.179Z,43.21
2023-05-06T17:20:33.635Z,43.56
2023-05-06T17:23:05.044Z,44.33
2023-05-06T17:25:31.903Z,46.04
2023-05-06T17:27:58.882Z,46.02
2023-05-06T17:30:25.661Z,47.18
2023-05-06T17:32:52.532Z,46.00
2023-05-06T17:35:20.388Z,46.50
2023-05-06T17:37:47.206Z,47.59
2023-05-06T17:40:15.469Z,48.11
2023-05-06T17:42:42.432Z,48.80
2023-05-06T17:45:09.730Z,49.56
2023-05-06T17:47:37.344Z,50.07
2023-05-06T17:50:04.761Z,51.30
2023-05-06T17:52:31.707Z,53.53
2023-05-06T17:55:23.432Z,54.64
2023-05-06T17:57:46.110Z,56.17
2023-05-06T18:00:14.243Z,57.07
2023-05-06T18:02:41.734Z,57.16
2023-05-06T18:05:09.208Z,58.27
2023-05-06T18:07:36.516Z,59.23
2023-05-06T18:10:03.452Z,59.98
2023-05-06T18:12:31.215Z,60.29
2023-05-06T18:14:58.250Z,60.42
2023-05-06T18:17:26.070Z,57.13
2023-05-06T18:19:53.044Z,57.64
2023-05-06T18:22:19.877Z,56.61
2023-05-06T18:24:46.701Z,56.69
2023-05-06T18:27:13.694Z,57.14
2023-05-06T18:29:41.714Z,56.97
2023-05-06T18:32:08.834Z,57.30
2023-05-06T18:34:36.088Z,57.26
2023-05-06T18:37:03.823Z,57.44
2023-05-06T18:39:30.596Z,57.42
2023-05-06T18:41:57.552Z,57.05
2023-05-06T18:44:24.418Z,57.38
2023-05-06T18:46:51.411Z,57.45
2023-05-06T18:49:18.412Z,57.97
2023-05-06T18:51:45.447Z,57.65
2023-05-06T18:54:14.258Z,57.71
2023-05-06T18:56:43.831Z,58.26
2023-05-06T18:59:11.455Z,57.82
2023-05-06T19:01:38.327Z,59.22
2023-05-06T19:04:06.683Z,56.58
2023-05-06T19:06:33.727Z,57.78
2023-05-06T19:09:01.581Z,57.79
2023-05-06T19:11:28.635Z,57.85
2023-05-06T19:13:55.595Z,57.43
2023-05-06T19:16:22.663Z,57.02
2023-05-06T19:18:49.646Z,57.10
2023-05-06T19:21:18.861Z,55.90
2023-05-06T19:23:45.738Z,56.32
2023-05-06T19:26:13.853Z,57.24
2023-05-06T19:28:40.846Z,58.21
2023-05-06T19:31:09.579Z,58.34
2023-05-06T19:33:38.076Z,58.96
2023-05-06T19:36:05.390Z,59.32
2023-05-06T19:38:32.268Z,59.33
2023-05-06T19:40:59.205Z,59.83
2023-05-06T19:43:26.120Z,60.06
2023-05-06T19:45:52.877Z,60.32
2023-05-06T19:48:19.920Z,60.36
2023-05-06T19:50:46.718Z,60.65
2023-05-06T19:53:13.627Z,60.97
2023-05-06T19:55:40.576Z,61.34
2023-05-06T19:58:07.491Z,61.53
2023-05-06T20:00:34.488Z,61.72
2023-05-06T20:03:01.409Z,61.91
2023-05-06T20:05:32.177Z,61.85
2023-05-06T20:08:02.633Z,61.94
2023-05-06T20:10:29.698Z,62.06
2023-05-06T20:12:57.894Z,62.01
2023-05-06T20:15:26.749Z,62.12
2023-05-06T20:17:53.974Z,62.15
2023-05-06T20:20:21.061Z,61.97
2023-05-06T20:22:48.136Z,62.22
2023-05-06T20:25:18.961Z,62.68
2023-05-06T20:27:46.579Z,63.50
2023-05-06T20:30:13.598Z,63.34
2023-05-06T20:32:40.913Z,63.68
2023-05-06T20:35:08.834Z,63.89
2023-05-06T20:37:36.394Z,64.12
2023-05-06T20:40:05.193Z,64.23
2023-05-06T20:42:32.108Z,64.38
2023-05-06T20:44:59.422Z,64.92
2023-05-06T20:47:27.064Z,65.00
2023-05-06T20:49:54.696Z,65.40
2023-05-06T20:52:22.161Z,65.64
2023-05-06T20:54:49.321Z,65.69
2023-05-06T20:57:16.611Z,66.22
2023-05-06T20:59:43.629Z,66.30
2023-05-06T21:02:10.716Z,66.09
2023-05-06T21:04:37.944Z,66.04
2023-05-06T21:07:04.924Z,66.08
2023-05-06T21:09:31.931Z,66.16
2023-05-06T21:11:59.159Z,66.63
2023-05-06T21:14:26.957Z,66.86
2023-05-06T21:16:53.927Z,67.20
2023-05-06T21:19:21.115Z,67.38
2023-05-06T21:21:48.429Z,67.74
2023-05-06T21:24:15.595Z,67.83
2023-05-06T21:26:42.418Z,67.94
2023-05-06T21:29:09.363Z,67.83
2023-05-06T21:31:36.658Z,67.74
2023-05-06T21:34:04.373Z,67.57
2023-05-06T21:36:31.434Z,67.01
2023-05-06T21:39:12.252Z,66.98
2023-05-06T21:41:39.480Z,66.71
2023-05-06T21:44:08.446Z,67.10
2023-05-06T21:46:36.947Z,67.19
2023-05-06T21:49:04.054Z,67.09
2023-05-06T21:51:33.263Z,67.36
2023-05-06T21:53:59.993Z,67.54
2023-05-06T21:56:26.921Z,67.58
2023-05-06T21:58:56.513Z,67.49
2023-05-06T22:01:26.539Z,67.66
2023-05-06T22:03:54.116Z,67.89
2023-05-06T22:06:22.047Z,68.31
2023-05-06T22:08:49.760Z,68.32
2023-05-06T22:11:16.987Z,68.41
2023-05-06T22:13:43.952Z,68.34
2023-05-06T22:16:10.969Z,68.51
2023-05-06T22:18:41.645Z,68.85
2023-05-06T22:21:09.960Z,68.54
2023-05-06T22:23:37.072Z,68.53
2023-05-06T22:26:04.528Z,68.44
2023-05-06T22:28:31.436Z,68.76
2023-05-06T22:30:58.387Z,68.99
2023-05-06T22:33:26.619Z,68.84
2023-05-06T22:35:53.893Z,69.04
2023-05-06T22:38:20.774Z,68.98
2023-05-06T22:40:47.876Z,69.20
2023-05-06T22:43:14.925Z,69.43
2023-05-06T22:45:41.806Z,69.45
2023-05-06T22:48:08.707Z,69.65
2023-05-06T22:50:36.734Z,69.94
2023-05-06T22:53:13.551Z,69.67
2023-05-06T22:55:41.897Z,69.67
2023-05-06T22:58:08.725Z,70.19
2023-05-06T23:00:35.676Z,70.55
2023-05-06T23:03:03.171Z,70.52
2023-05-06T23:05:30.253Z,70.81
2023-05-06T23:07:57.208Z,70.58
2023-05-06T23:10:23.975Z,70.32
2023-05-06T23:12:50.944Z,70.32
2023-05-06T23:15:17.833Z,70.27
2023-05-06T23:17:45.051Z,70.21
2023-05-06T23:20:13.027Z,70.23
2023-05-06T23:22:39.914Z,70.10
2023-05-06T23:25:09.339Z,69.94
2023-05-06T23:27:41.461Z,70.53
2023-05-06T23:30:08.970Z,70.41
2023-05-06T23:32:36.071Z,70.48
2023-05-06T23:35:03.140Z,70.07
2023-05-06T23:37:29.944Z,69.84
2023-05-06T23:39:58.733Z,69.89
2023-05-06T23:42:26.289Z,70.44
2023-05-06T23:44:53.705Z,71.37
2023-05-06T23:47:20.555Z,71.63
2023-05-06T23:49:47.408Z,71.49
2023-05-06T23:52:14.303Z,71.28
2023-05-06T23:54:41.117Z,71.02
2023-05-06T23:57:08.098Z,71.81
2023-05-06T23:59:35.162Z,71.31
